sensor_id;sensor_type;location;lat;lon;timestamp;temperature;humidity
65038;DHT22;51605;47.040;15.294;2023-02-28T00:01:02;20.00;53.70
65038;DHT22;51605;47.040;15.294;2023-02-28T00:03:28;20.00;53.80
65038;DHT22;51605;47.040;15.294;2023-02-28T00:05:54;20.00;53.80
65038;DHT22;51605;47.040;15.294;2023-02-28T00:08:19;20.00;53.80
65038;DHT22;51605;47.040;15.294;2023-02-28T00:10:45;20.00;53.80
65038;DHT22;51605;47.040;15.294;2023-02-28T00:13:10;20.10;53.80
65038;DHT22;51605;47.040;15.294;2023-02-28T00:15:36;20.00;53.70
65038;DHT22;51605;47.040;15.294;2023-02-28T00:18:02;20.00;53.80
65038;DHT22;51605;47.040;15.294;2023-02-28T00:20:28;20.00;53.80
65038;DHT22;51605;47.040;15.294;2023-02-28T00:22:55;20.00;53.90
65038;DHT22;51605;47.040;15.294;2023-02-28T00:25:24;20.00;53.90
65038;DHT22;51605;47.040;15.294;2023-02-28T00:27:50;20.00;53.90
65038;DHT22;51605;47.040;15.294;2023-02-28T00:30:18;20.00;53.90
65038;DHT22;51605;47.040;15.294;2023-02-28T00:32:44;20.00;53.90
65038;DHT22;51605;47.040;15.294;2023-02-28T00:35:10;20.00;53.80
65038;DHT22;51605;47.040;15.294;2023-02-28T00:37:36;20.00;53.90
65038;DHT22;51605;47.040;15.294;2023-02-28T00:40:03;20.00;53.90
65038;DHT22;51605;47.040;15.294;2023-02-28T00:42:33;20.00;53.90
65038;DHT22;51605;47.040;15.294;2023-02-28T00:44:59;20.00;53.90
65038;DHT22;51605;47.040;15.294;2023-02-28T00:47:25;20.00;53.80
65038;DHT22;51605;47.040;15.294;2023-02-28T00:49:51;20.00;53.90
65038;DHT22;51605;47.040;15.294;2023-02-28T00:52:16;20.00;53.90
65038;DHT22;51605;47.040;15.294;2023-02-28T00:54:42;20.00;53.90
65038;DHT22;51605;47.040;15.294;2023-02-28T00:57:07;20.00;53.80
65038;DHT22;51605;47.040;15.294;2023-02-28T00:59:33;20.00;53.90
65038;DHT22;51605;47.040;15.294;2023-02-28T01:01:59;20.00;53.90
65038;DHT22;51605;47.040;15.294;2023-02-28T01:04:24;20.00;53.90
65038;DHT22;51605;47.040;15.294;2023-02-28T01:06:50;20.00;53.90
65038;DHT22;51605;47.040;15.294;2023-02-28T01:09:16;20.00;53.90
65038;DHT22;51605;47.040;15.294;2023-02-28T01:11:42;20.00;53.90
65038;DHT22;51605;47.040;15.294;2023-02-28T01:14:12;20.00;53.90
65038;DHT22;51605;47.040;15.294;2023-02-28T01:16:38;20.00;53.90
65038;DHT22;51605;47.040;15.294;2023-02-28T01:19:03;20.00;54.00
65038;DHT22;51605;47.040;15.294;2023-02-28T01:21:29;20.00;54.00
65038;DHT22;51605;47.040;15.294;2023-02-28T01:23:57;20.00;53.90
65038;DHT22;51605;47.040;15.294;2023-02-28T01:26:23;20.00;53.90
65038;DHT22;51605;47.040;15.294;2023-02-28T01:28:51;20.00;53.90
65038;DHT22;51605;47.040;15.294;2023-02-28T01:31:17;20.00;53.90
65038;DHT22;51605;47.040;15.294;2023-02-28T01:33:44;20.00;53.90
65038;DHT22;51605;47.040;15.294;2023-02-28T01:36:14;20.00;53.90
65038;DHT22;51605;47.040;15.294;2023-02-28T01:38:40;20.00;53.90
65038;DHT22;51605;47.040;15.294;2023-02-28T01:41:07;20.00;53.90
65038;DHT22;51605;47.040;15.294;2023-02-28T01:46:08;20.00;53.90
65038;DHT22;51605;47.040;15.294;2023-02-28T01:48:40;20.00;53.80
65038;DHT22;51605;47.040;15.294;2023-02-28T01:51:15;20.10;54.00
65038;DHT22;51605;47.040;15.294;2023-02-28T01:53:47;20.00;53.90
65038;DHT22;51605;47.040;15.294;2023-02-28T01:56:20;20.00;53.90
65038;DHT22;51605;47.040;15.294;2023-02-28T01:58:51;20.00;53.90
65038;DHT22;51605;47.040;15.294;2023-02-28T02:01:19;20.00;54.00
65038;DHT22;51605;47.040;15.294;2023-02-28T02:03:54;20.00;53.90
65038;DHT22;51605;47.040;15.294;2023-02-28T02:06:28;20.00;53.90
65038;DHT22;51605;47.040;15.294;2023-02-28T02:08:54;20.00;53.90
65038;DHT22;51605;47.040;15.294;2023-02-28T02:11:22;20.00;53.90
65038;DHT22;51605;47.040;15.294;2023-02-28T02:16:55;20.00;53.90
65038;DHT22;51605;47.040;15.294;2023-02-28T02:25:36;20.00;54.00
65038;DHT22;51605;47.040;15.294;2023-02-28T02:31:43;20.00;54.00
65038;DHT22;51605;47.040;15.294;2023-02-28T02:36:53;20.00;53.90
65038;DHT22;51605;47.040;15.294;2023-02-28T02:39:47;20.00;54.00
65038;DHT22;51605;47.040;15.294;2023-02-28T02:42:20;20.00;54.00
65038;DHT22;51605;47.040;15.294;2023-02-28T02:44:53;20.00;54.00
65038;DHT22;51605;47.040;15.294;2023-02-28T02:47:22;20.00;54.00
65038;DHT22;51605;47.040;15.294;2023-02-28T02:49:56;20.00;53.90
65038;DHT22;51605;47.040;15.294;2023-02-28T02:52:29;20.00;54.00
65038;DHT22;51605;47.040;15.294;2023-02-28T02:54:56;20.00;53.90
65038;DHT22;51605;47.040;15.294;2023-02-28T02:57:32;20.00;53.90
65038;DHT22;51605;47.040;15.294;2023-02-28T03:00:00;20.00;53.90
65038;DHT22;51605;47.040;15.294;2023-02-28T03:02:28;20.10;54.00
65038;DHT22;51605;47.040;15.294;2023-02-28T03:05:02;20.10;54.00
65038;DHT22;51605;47.040;15.294;2023-02-28T03:07:30;20.00;54.00
65038;DHT22;51605;47.040;15.294;2023-02-28T03:09:57;20.10;53.90
65038;DHT22;51605;47.040;15.294;2023-02-28T03:12:23;20.10;54.00
65038;DHT22;51605;47.040;15.294;2023-02-28T03:15:05;20.10;54.00
65038;DHT22;51605;47.040;15.294;2023-02-28T03:23:21;20.10;53.90
65038;DHT22;51605;47.040;15.294;2023-02-28T03:26:19;20.00;53.90
65038;DHT22;51605;47.040;15.294;2023-02-28T03:34:03;20.00;54.00
65038;DHT22;51605;47.040;15.294;2023-02-28T03:36:34;20.00;54.00
65038;DHT22;51605;47.040;15.294;2023-02-28T03:39:28;20.00;54.00
65038;DHT22;51605;47.040;15.294;2023-02-28T03:42:02;20.00;53.90
65038;DHT22;51605;47.040;15.294;2023-02-28T03:44:34;20.10;53.90
65038;DHT22;51605;47.040;15.294;2023-02-28T03:47:13;20.00;53.90
65038;DHT22;51605;47.040;15.294;2023-02-28T03:49:46;20.00;53.90
65038;DHT22;51605;47.040;15.294;2023-02-28T03:52:17;20.10;53.90
65038;DHT22;51605;47.040;15.294;2023-02-28T03:54:53;20.00;53.90
65038;DHT22;51605;47.040;15.294;2023-02-28T04:00:19;20.00;54.00
65038;DHT22;51605;47.040;15.294;2023-02-28T04:02:45;20.00;53.90
65038;DHT22;51605;47.040;15.294;2023-02-28T04:05:11;20.10;53.90
65038;DHT22;51605;47.040;15.294;2023-02-28T04:07:37;20.10;53.90
65038;DHT22;51605;47.040;15.294;2023-02-28T04:10:03;20.10;54.00
65038;DHT22;51605;47.040;15.294;2023-02-28T04:12:29;20.10;53.90
65038;DHT22;51605;47.040;15.294;2023-02-28T04:14:55;20.10;53.90
65038;DHT22;51605;47.040;15.294;2023-02-28T04:17:20;20.10;53.90
65038;DHT22;51605;47.040;15.294;2023-02-28T04:19:46;20.10;53.90
65038;DHT22;51605;47.040;15.294;2023-02-28T04:22:12;20.10;53.90
65038;DHT22;51605;47.040;15.294;2023-02-28T04:24:37;20.10;53.90
65038;DHT22;51605;47.040;15.294;2023-02-28T04:27:07;20.10;53.90
65038;DHT22;51605;47.040;15.294;2023-02-28T04:29:33;20.10;53.90
65038;DHT22;51605;47.040;15.294;2023-02-28T04:32:00;20.10;53.90
65038;DHT22;51605;47.040;15.294;2023-02-28T04:34:28;20.00;53.90
65038;DHT22;51605;47.040;15.294;2023-02-28T04:36:54;20.10;53.90
65038;DHT22;51605;47.040;15.294;2023-02-28T04:39:21;20.10;53.90
65038;DHT22;51605;47.040;15.294;2023-02-28T04:41:47;20.10;53.80
65038;DHT22;51605;47.040;15.294;2023-02-28T04:44:13;20.10;53.80
65038;DHT22;51605;47.040;15.294;2023-02-28T04:46:39;20.10;53.80
65038;DHT22;51605;47.040;15.294;2023-02-28T04:49:04;20.10;53.90
65038;DHT22;51605;47.040;15.294;2023-02-28T04:51:30;20.10;53.80
65038;DHT22;51605;47.040;15.294;2023-02-28T04:53:56;20.10;53.90
65038;DHT22;51605;47.040;15.294;2023-02-28T04:56:22;20.00;53.80
65038;DHT22;51605;47.040;15.294;2023-02-28T04:58:48;20.00;53.90
65038;DHT22;51605;47.040;15.294;2023-02-28T05:01:24;20.10;53.90
65038;DHT22;51605;47.040;15.294;2023-02-28T05:03:50;20.10;53.90
65038;DHT22;51605;47.040;15.294;2023-02-28T05:06:17;20.10;53.90
65038;DHT22;51605;47.040;15.294;2023-02-28T05:08:43;20.00;53.90
65038;DHT22;51605;47.040;15.294;2023-02-28T05:13:45;20.00;53.90
65038;DHT22;51605;47.040;15.294;2023-02-28T05:16:11;20.00;53.90
65038;DHT22;51605;47.040;15.294;2023-02-28T05:18:37;20.00;53.90
65038;DHT22;51605;47.040;15.294;2023-02-28T05:21:02;20.00;53.90
65038;DHT22;51605;47.040;15.294;2023-02-28T05:23:28;20.00;53.90
65038;DHT22;51605;47.040;15.294;2023-02-28T05:25:55;20.00;53.90
65038;DHT22;51605;47.040;15.294;2023-02-28T05:28:21;20.00;54.00
65038;DHT22;51605;47.040;15.294;2023-02-28T05:30:47;20.10;54.00
65038;DHT22;51605;47.040;15.294;2023-02-28T05:33:12;20.10;53.90
65038;DHT22;51605;47.040;15.294;2023-02-28T05:35:42;20.10;54.00
65038;DHT22;51605;47.040;15.294;2023-02-28T05:38:08;20.00;53.90
65038;DHT22;51605;47.040;15.294;2023-02-28T05:40:34;20.10;53.90
65038;DHT22;51605;47.040;15.294;2023-02-28T05:43:00;20.00;53.90
65038;DHT22;51605;47.040;15.294;2023-02-28T05:45:25;20.10;53.90
65038;DHT22;51605;47.040;15.294;2023-02-28T05:47:54;20.10;54.00
65038;DHT22;51605;47.040;15.294;2023-02-28T05:50:20;20.00;53.90
65038;DHT22;51605;47.040;15.294;2023-02-28T05:52:52;20.10;54.00
65038;DHT22;51605;47.040;15.294;2023-02-28T05:55:17;20.00;54.00
65038;DHT22;51605;47.040;15.294;2023-02-28T05:57:43;20.00;53.90
65038;DHT22;51605;47.040;15.294;2023-02-28T06:00:10;20.00;53.90
65038;DHT22;51605;47.040;15.294;2023-02-28T06:02:38;20.00;54.00
65038;DHT22;51605;47.040;15.294;2023-02-28T06:05:03;20.00;54.00
65038;DHT22;51605;47.040;15.294;2023-02-28T06:07:29;20.00;54.00
65038;DHT22;51605;47.040;15.294;2023-02-28T06:09:55;20.00;54.00
65038;DHT22;51605;47.040;15.294;2023-02-28T06:12:20;20.00;53.90
65038;DHT22;51605;47.040;15.294;2023-02-28T06:14:46;20.00;54.00
65038;DHT22;51605;47.040;15.294;2023-02-28T06:17:11;20.00;54.00
65038;DHT22;51605;47.040;15.294;2023-02-28T06:19:38;20.00;54.00
65038;DHT22;51605;47.040;15.294;2023-02-28T06:22:06;20.00;54.00
65038;DHT22;51605;47.040;15.294;2023-02-28T06:24:32;20.00;54.00
65038;DHT22;51605;47.040;15.294;2023-02-28T06:26:57;20.00;54.10
65038;DHT22;51605;47.040;15.294;2023-02-28T06:29:33;20.00;54.00
65038;DHT22;51605;47.040;15.294;2023-02-28T06:31:59;20.00;53.90
65038;DHT22;51605;47.040;15.294;2023-02-28T06:34:25;20.00;53.90
65038;DHT22;51605;47.040;15.294;2023-02-28T06:36:51;20.00;53.90
65038;DHT22;51605;47.040;15.294;2023-02-28T06:39:17;20.00;53.90
65038;DHT22;51605;47.040;15.294;2023-02-28T06:41:43;20.00;53.90
65038;DHT22;51605;47.040;15.294;2023-02-28T06:44:16;20.00;53.90
65038;DHT22;51605;47.040;15.294;2023-02-28T06:46:44;20.00;54.00
65038;DHT22;51605;47.040;15.294;2023-02-28T06:49:10;20.00;53.90
65038;DHT22;51605;47.040;15.294;2023-02-28T06:51:39;20.00;53.90
65038;DHT22;51605;47.040;15.294;2023-02-28T06:54:05;20.00;54.00
65038;DHT22;51605;47.040;15.294;2023-02-28T06:56:34;20.00;54.50
65038;DHT22;51605;47.040;15.294;2023-02-28T06:58:59;20.00;54.90
65038;DHT22;51605;47.040;15.294;2023-02-28T07:01:25;20.00;54.40
65038;DHT22;51605;47.040;15.294;2023-02-28T07:03:53;20.00;54.30
65038;DHT22;51605;47.040;15.294;2023-02-28T07:06:22;20.00;54.00
65038;DHT22;51605;47.040;15.294;2023-02-28T07:08:49;20.00;54.00
65038;DHT22;51605;47.040;15.294;2023-02-28T07:11:15;20.00;53.90
65038;DHT22;51605;47.040;15.294;2023-02-28T07:13:41;20.00;53.80
65038;DHT22;51605;47.040;15.294;2023-02-28T07:16:09;20.00;53.70
65038;DHT22;51605;47.040;15.294;2023-02-28T07:18:35;20.00;53.60
65038;DHT22;51605;47.040;15.294;2023-02-28T07:21:03;20.00;53.60
65038;DHT22;51605;47.040;15.294;2023-02-28T07:23:29;20.00;53.60
65038;DHT22;51605;47.040;15.294;2023-02-28T07:25:55;20.00;53.60
65038;DHT22;51605;47.040;15.294;2023-02-28T07:28:20;20.00;53.60
65038;DHT22;51605;47.040;15.294;2023-02-28T07:30:46;20.00;53.70
65038;DHT22;51605;47.040;15.294;2023-02-28T07:33:13;20.00;53.60
65038;DHT22;51605;47.040;15.294;2023-02-28T07:35:38;20.00;53.60
65038;DHT22;51605;47.040;15.294;2023-02-28T07:38:04;20.00;53.60
65038;DHT22;51605;47.040;15.294;2023-02-28T07:40:30;20.00;53.60
65038;DHT22;51605;47.040;15.294;2023-02-28T07:42:56;20.00;53.60
65038;DHT22;51605;47.040;15.294;2023-02-28T07:45:21;20.00;53.60
65038;DHT22;51605;47.040;15.294;2023-02-28T07:47:47;20.00;53.60
65038;DHT22;51605;47.040;15.294;2023-02-28T07:50:15;20.00;53.50
65038;DHT22;51605;47.040;15.294;2023-02-28T07:52:41;20.00;53.60
65038;DHT22;51605;47.040;15.294;2023-02-28T07:55:08;20.00;53.50
65038;DHT22;51605;47.040;15.294;2023-02-28T07:57:35;20.00;53.50
65038;DHT22;51605;47.040;15.294;2023-02-28T08:00:02;20.00;53.50
65038;DHT22;51605;47.040;15.294;2023-02-28T08:02:28;20.00;53.50
65038;DHT22;51605;47.040;15.294;2023-02-28T08:04:54;20.00;54.40
65038;DHT22;51605;47.040;15.294;2023-02-28T08:07:19;20.00;53.40
65038;DHT22;51605;47.040;15.294;2023-02-28T08:09:45;20.00;53.40
65038;DHT22;51605;47.040;15.294;2023-02-28T08:12:11;20.00;53.40
65038;DHT22;51605;47.040;15.294;2023-02-28T08:14:37;20.00;53.40
65038;DHT22;51605;47.040;15.294;2023-02-28T08:17:04;20.00;53.40
65038;DHT22;51605;47.040;15.294;2023-02-28T08:19:30;20.00;53.40
65038;DHT22;51605;47.040;15.294;2023-02-28T08:21:56;20.00;53.40
65038;DHT22;51605;47.040;15.294;2023-02-28T08:24:22;20.00;53.40
65038;DHT22;51605;47.040;15.294;2023-02-28T08:26:48;20.00;53.40
65038;DHT22;51605;47.040;15.294;2023-02-28T08:29:14;20.00;53.40
65038;DHT22;51605;47.040;15.294;2023-02-28T08:31:40;20.00;53.40
65038;DHT22;51605;47.040;15.294;2023-02-28T08:34:07;20.00;54.20
65038;DHT22;51605;47.040;15.294;2023-02-28T08:36:33;20.00;53.50
65038;DHT22;51605;47.040;15.294;2023-02-28T08:38:59;20.00;53.30
65038;DHT22;51605;47.040;15.294;2023-02-28T08:41:25;20.00;53.30
65038;DHT22;51605;47.040;15.294;2023-02-28T08:43:51;20.00;53.30
65038;DHT22;51605;47.040;15.294;2023-02-28T08:46:17;20.00;53.30
65038;DHT22;51605;47.040;15.294;2023-02-28T08:48:43;20.00;53.40
65038;DHT22;51605;47.040;15.294;2023-02-28T08:51:16;20.00;53.30
65038;DHT22;51605;47.040;15.294;2023-02-28T08:53:44;20.00;53.40
65038;DHT22;51605;47.040;15.294;2023-02-28T08:56:13;20.00;53.40
65038;DHT22;51605;47.040;15.294;2023-02-28T08:58:39;20.00;53.40
65038;DHT22;51605;47.040;15.294;2023-02-28T09:01:31;20.00;53.40
65038;DHT22;51605;47.040;15.294;2023-02-28T09:03:57;20.00;53.40
65038;DHT22;51605;47.040;15.294;2023-02-28T09:06:25;20.00;53.30
65038;DHT22;51605;47.040;15.294;2023-02-28T09:08:52;20.00;53.30
65038;DHT22;51605;47.040;15.294;2023-02-28T09:11:18;20.00;53.30
65038;DHT22;51605;47.040;15.294;2023-02-28T09:13:45;20.00;53.30
65038;DHT22;51605;47.040;15.294;2023-02-28T09:16:13;20.00;53.30
65038;DHT22;51605;47.040;15.294;2023-02-28T09:18:39;20.00;53.30
65038;DHT22;51605;47.040;15.294;2023-02-28T09:21:06;20.00;53.30
65038;DHT22;51605;47.040;15.294;2023-02-28T09:23:32;20.00;53.30
65038;DHT22;51605;47.040;15.294;2023-02-28T09:25:57;20.00;53.40
65038;DHT22;51605;47.040;15.294;2023-02-28T09:28:24;20.00;53.40
65038;DHT22;51605;47.040;15.294;2023-02-28T09:30:52;20.00;53.40
65038;DHT22;51605;47.040;15.294;2023-02-28T09:33:18;20.00;53.40
65038;DHT22;51605;47.040;15.294;2023-02-28T09:35:47;20.00;53.30
65038;DHT22;51605;47.040;15.294;2023-02-28T09:38:12;20.00;53.30
65038;DHT22;51605;47.040;15.294;2023-02-28T09:40:52;20.00;53.30
65038;DHT22;51605;47.040;15.294;2023-02-28T09:43:21;20.00;53.40
65038;DHT22;51605;47.040;15.294;2023-02-28T09:46:00;20.00;53.30
65038;DHT22;51605;47.040;15.294;2023-02-28T09:48:36;20.00;53.30
65038;DHT22;51605;47.040;15.294;2023-02-28T09:53:39;20.00;53.20
65038;DHT22;51605;47.040;15.294;2023-02-28T09:56:11;20.00;53.20
65038;DHT22;51605;47.040;15.294;2023-02-28T09:59:04;20.00;53.20
65038;DHT22;51605;47.040;15.294;2023-02-28T10:01:39;20.00;53.30
65038;DHT22;51605;47.040;15.294;2023-02-28T10:04:16;20.00;53.20
65038;DHT22;51605;47.040;15.294;2023-02-28T10:06:49;20.00;53.30
65038;DHT22;51605;47.040;15.294;2023-02-28T10:11:45;20.00;53.20
65038;DHT22;51605;47.040;15.294;2023-02-28T10:16:47;20.00;53.30
65038;DHT22;51605;47.040;15.294;2023-02-28T10:19:33;20.00;53.30
65038;DHT22;51605;47.040;15.294;2023-02-28T10:22:03;20.00;53.30
65038;DHT22;51605;47.040;15.294;2023-02-28T10:24:38;20.00;53.30
65038;DHT22;51605;47.040;15.294;2023-02-28T10:29:46;20.00;53.30
65038;DHT22;51605;47.040;15.294;2023-02-28T10:32:25;19.90;53.20
65038;DHT22;51605;47.040;15.294;2023-02-28T10:35:01;20.00;53.20
65038;DHT22;51605;47.040;15.294;2023-02-28T10:37:31;20.00;53.20
65038;DHT22;51605;47.040;15.294;2023-02-28T10:39:57;20.00;53.30
65038;DHT22;51605;47.040;15.294;2023-02-28T10:42:27;20.00;53.20
65038;DHT22;51605;47.040;15.294;2023-02-28T10:45:16;20.00;53.20
65038;DHT22;51605;47.040;15.294;2023-02-28T10:48:03;20.00;53.20
65038;DHT22;51605;47.040;15.294;2023-02-28T10:50:51;19.90;53.30
65038;DHT22;51605;47.040;15.294;2023-02-28T10:56:13;19.90;53.50
65038;DHT22;51605;47.040;15.294;2023-02-28T10:59:00;20.00;53.40
65038;DHT22;51605;47.040;15.294;2023-02-28T11:04:01;20.00;53.30
65038;DHT22;51605;47.040;15.294;2023-02-28T11:06:33;19.90;53.20
65038;DHT22;51605;47.040;15.294;2023-02-28T11:09:02;20.00;53.30
65038;DHT22;51605;47.040;15.294;2023-02-28T11:11:29;20.00;53.30
65038;DHT22;51605;47.040;15.294;2023-02-28T11:14:03;20.00;53.30
65038;DHT22;51605;47.040;15.294;2023-02-28T11:16:35;20.00;53.30
65038;DHT22;51605;47.040;15.294;2023-02-28T11:19:03;20.00;53.20
65038;DHT22;51605;47.040;15.294;2023-02-28T11:21:31;20.00;53.20
65038;DHT22;51605;47.040;15.294;2023-02-28T11:24:05;20.00;53.20
65038;DHT22;51605;47.040;15.294;2023-02-28T11:26:42;20.00;53.30
65038;DHT22;51605;47.040;15.294;2023-02-28T11:31:42;20.00;53.20
65038;DHT22;51605;47.040;15.294;2023-02-28T11:34:34;20.00;53.20
65038;DHT22;51605;47.040;15.294;2023-02-28T11:37:01;20.00;53.20
65038;DHT22;51605;47.040;15.294;2023-02-28T11:39:31;20.00;53.20
65038;DHT22;51605;47.040;15.294;2023-02-28T11:45:14;20.00;53.30
65038;DHT22;51605;47.040;15.294;2023-02-28T11:48:04;20.00;53.20
65038;DHT22;51605;47.040;15.294;2023-02-28T11:51:02;20.00;53.20
65038;DHT22;51605;47.040;15.294;2023-02-28T11:56:14;20.00;53.20
65038;DHT22;51605;47.040;15.294;2023-02-28T12:06:58;19.90;53.30
65038;DHT22;51605;47.040;15.294;2023-02-28T12:11:55;20.00;53.10
65038;DHT22;51605;47.040;15.294;2023-02-28T12:17:10;20.00;53.10
65038;DHT22;51605;47.040;15.294;2023-02-28T12:19:48;20.00;53.20
65038;DHT22;51605;47.040;15.294;2023-02-28T12:27:47;20.00;53.10
65038;DHT22;51605;47.040;15.294;2023-02-28T12:30:24;20.00;53.10
65038;DHT22;51605;47.040;15.294;2023-02-28T12:33:14;20.00;53.20
65038;DHT22;51605;47.040;15.294;2023-02-28T12:35:55;20.00;53.20
65038;DHT22;51605;47.040;15.294;2023-02-28T12:38:28;20.00;53.10
65038;DHT22;51605;47.040;15.294;2023-02-28T12:41:04;20.00;53.10
65038;DHT22;51605;47.040;15.294;2023-02-28T12:43:39;20.00;53.20
65038;DHT22;51605;47.040;15.294;2023-02-28T12:46:21;20.00;53.10
65038;DHT22;51605;47.040;15.294;2023-02-28T12:48:52;20.00;53.20
65038;DHT22;51605;47.040;15.294;2023-02-28T12:51:19;20.00;53.10
65038;DHT22;51605;47.040;15.294;2023-02-28T12:53:54;20.00;53.20
65038;DHT22;51605;47.040;15.294;2023-02-28T12:56:47;20.00;53.10
65038;DHT22;51605;47.040;15.294;2023-02-28T12:59:27;20.00;53.20
65038;DHT22;51605;47.040;15.294;2023-02-28T13:02:33;20.00;53.20
65038;DHT22;51605;47.040;15.294;2023-02-28T13:10:46;20.00;53.30
65038;DHT22;51605;47.040;15.294;2023-02-28T13:13:18;20.00;53.40
65038;DHT22;51605;47.040;15.294;2023-02-28T13:16:08;20.00;53.40
65038;DHT22;51605;47.040;15.294;2023-02-28T13:21:02;20.00;53.20
65038;DHT22;51605;47.040;15.294;2023-02-28T13:39:53;20.00;53.80
65038;DHT22;51605;47.040;15.294;2023-02-28T13:47:42;19.90;54.30
65038;DHT22;51605;47.040;15.294;2023-02-28T14:01:45;20.00;53.60
65038;DHT22;51605;47.040;15.294;2023-02-28T14:07:15;20.00;53.60
65038;DHT22;51605;47.040;15.294;2023-02-28T14:09:47;20.00;53.60
65038;DHT22;51605;47.040;15.294;2023-02-28T14:15:28;20.00;56.20
65038;DHT22;51605;47.040;15.294;2023-02-28T14:17:56;20.10;54.60
65038;DHT22;51605;47.040;15.294;2023-02-28T14:20:26;20.10;54.20
65038;DHT22;51605;47.040;15.294;2023-02-28T14:23:18;20.10;54.10
65038;DHT22;51605;47.040;15.294;2023-02-28T14:31:28;20.00;53.90
65038;DHT22;51605;47.040;15.294;2023-02-28T14:36:35;20.00;53.70
65038;DHT22;51605;47.040;15.294;2023-02-28T14:39:22;20.00;53.80
65038;DHT22;51605;47.040;15.294;2023-02-28T14:41:48;20.00;53.80
65038;DHT22;51605;47.040;15.294;2023-02-28T14:44:20;20.00;53.70
65038;DHT22;51605;47.040;15.294;2023-02-28T14:46:49;20.00;53.80
65038;DHT22;51605;47.040;15.294;2023-02-28T14:49:37;20.00;53.70
65038;DHT22;51605;47.040;15.294;2023-02-28T14:52:16;20.00;53.70
65038;DHT22;51605;47.040;15.294;2023-02-28T14:54:43;20.00;53.70
65038;DHT22;51605;47.040;15.294;2023-02-28T14:57:29;20.00;53.70
65038;DHT22;51605;47.040;15.294;2023-02-28T15:02:43;20.00;54.20
65038;DHT22;51605;47.040;15.294;2023-02-28T15:07:44;20.00;53.80
65038;DHT22;51605;47.040;15.294;2023-02-28T15:10:17;20.00;53.70
65038;DHT22;51605;47.040;15.294;2023-02-28T15:12:59;20.00;53.80
65038;DHT22;51605;47.040;15.294;2023-02-28T15:18:36;20.00;53.80
65038;DHT22;51605;47.040;15.294;2023-02-28T15:21:12;20.00;54.00
65038;DHT22;51605;47.040;15.294;2023-02-28T15:23:41;20.00;53.70
65038;DHT22;51605;47.040;15.294;2023-02-28T15:26:13;20.00;53.70
65038;DHT22;51605;47.040;15.294;2023-02-28T15:28:41;20.00;53.70
65038;DHT22;51605;47.040;15.294;2023-02-28T15:31:23;20.00;53.70
65038;DHT22;51605;47.040;15.294;2023-02-28T15:34:02;20.00;53.60
65038;DHT22;51605;47.040;15.294;2023-02-28T15:36:33;20.00;53.60
65038;DHT22;51605;47.040;15.294;2023-02-28T15:39:16;20.00;53.50
65038;DHT22;51605;47.040;15.294;2023-02-28T15:41:43;20.00;53.60
65038;DHT22;51605;47.040;15.294;2023-02-28T15:44:28;20.00;53.60
65038;DHT22;51605;47.040;15.294;2023-02-28T15:47:04;20.00;53.50
65038;DHT22;51605;47.040;15.294;2023-02-28T15:49:39;20.00;53.60
65038;DHT22;51605;47.040;15.294;2023-02-28T15:52:05;20.00;53.60
65038;DHT22;51605;47.040;15.294;2023-02-28T15:54:34;20.00;53.60
65038;DHT22;51605;47.040;15.294;2023-02-28T15:57:05;20.00;53.60
65038;DHT22;51605;47.040;15.294;2023-02-28T15:59:35;20.00;53.60
65038;DHT22;51605;47.040;15.294;2023-02-28T16:04:36;20.00;53.50
65038;DHT22;51605;47.040;15.294;2023-02-28T16:07:04;20.00;53.50
65038;DHT22;51605;47.040;15.294;2023-02-28T16:09:33;20.00;53.50
65038;DHT22;51605;47.040;15.294;2023-02-28T16:12:01;20.00;53.50
65038;DHT22;51605;47.040;15.294;2023-02-28T16:14:28;20.00;53.60
65038;DHT22;51605;47.040;15.294;2023-02-28T16:17:06;20.00;53.60
65038;DHT22;51605;47.040;15.294;2023-02-28T16:19:34;20.00;53.60
65038;DHT22;51605;47.040;15.294;2023-02-28T16:22:00;20.00;53.50
65038;DHT22;51605;47.040;15.294;2023-02-28T16:24:29;20.00;53.40
65038;DHT22;51605;47.040;15.294;2023-02-28T16:26:56;20.00;53.40
65038;DHT22;51605;47.040;15.294;2023-02-28T16:29:40;20.00;53.50
65038;DHT22;51605;47.040;15.294;2023-02-28T16:32:07;20.00;53.50
65038;DHT22;51605;47.040;15.294;2023-02-28T16:34:32;20.00;53.40
65038;DHT22;51605;47.040;15.294;2023-02-28T16:36:58;20.00;53.90
65038;DHT22;51605;47.040;15.294;2023-02-28T16:39:24;20.00;53.70
65038;DHT22;51605;47.040;15.294;2023-02-28T16:41:50;20.00;53.60
65038;DHT22;51605;47.040;15.294;2023-02-28T16:44:34;20.00;53.60
65038;DHT22;51605;47.040;15.294;2023-02-28T16:47:01;20.00;53.70
65038;DHT22;51605;47.040;15.294;2023-02-28T16:49:27;20.00;53.70
65038;DHT22;51605;47.040;15.294;2023-02-28T16:51:53;20.00;53.60
65038;DHT22;51605;47.040;15.294;2023-02-28T16:54:19;20.00;53.60
65038;DHT22;51605;47.040;15.294;2023-02-28T16:56:47;20.00;53.60
65038;DHT22;51605;47.040;15.294;2023-02-28T16:59:14;20.00;53.60
65038;DHT22;51605;47.040;15.294;2023-02-28T17:01:46;20.00;53.50
65038;DHT22;51605;47.040;15.294;2023-02-28T17:04:12;20.00;53.50
65038;DHT22;51605;47.040;15.294;2023-02-28T17:06:40;20.00;53.50
65038;DHT22;51605;47.040;15.294;2023-02-28T17:09:14;20.00;53.60
65038;DHT22;51605;47.040;15.294;2023-02-28T17:11:41;20.00;53.60
65038;DHT22;51605;47.040;15.294;2023-02-28T17:14:06;20.00;53.60
65038;DHT22;51605;47.040;15.294;2023-02-28T17:16:33;20.00;53.50
65038;DHT22;51605;47.040;15.294;2023-02-28T17:19:03;20.00;53.60
65038;DHT22;51605;47.040;15.294;2023-02-28T17:21:30;20.00;53.60
65038;DHT22;51605;47.040;15.294;2023-02-28T17:23:56;20.00;53.50
65038;DHT22;51605;47.040;15.294;2023-02-28T17:26:22;20.00;53.60
65038;DHT22;51605;47.040;15.294;2023-02-28T17:28:52;20.00;53.50
65038;DHT22;51605;47.040;15.294;2023-02-28T17:31:20;20.00;53.40
65038;DHT22;51605;47.040;15.294;2023-02-28T17:33:45;20.00;53.50
65038;DHT22;51605;47.040;15.294;2023-02-28T17:36:16;20.00;53.50
65038;DHT22;51605;47.040;15.294;2023-02-28T17:38:43;20.00;53.40
65038;DHT22;51605;47.040;15.294;2023-02-28T17:41:12;20.00;53.50
65038;DHT22;51605;47.040;15.294;2023-02-28T17:43:38;20.00;53.50
65038;DHT22;51605;47.040;15.294;2023-02-28T17:46:04;20.00;53.60
65038;DHT22;51605;47.040;15.294;2023-02-28T17:48:31;20.00;53.70
65038;DHT22;51605;47.040;15.294;2023-02-28T17:50:57;20.00;53.90
65038;DHT22;51605;47.040;15.294;2023-02-28T17:53:22;20.00;53.70
65038;DHT22;51605;47.040;15.294;2023-02-28T17:55:49;20.00;54.60